Time;durP1;ratioP1;P1;durP2;ratioP2;P2;SDS_P1;SDS_P2;PMS_P1;PMS_P2;Temp;Humidity;BMP_temperature;BMP_pressure;BME280_temperature;BME280_humidity;BME280_pressure;Samples;Min_cycle;Max_cycle;Signal;HPM_P1;HPM_P2
2022/07/31 00:01:07;;;;;;;3.15;2.65;;;22.80;57.60;;;;;;5054219;28;20186;-65
2022/07/31 00:03:32;;;;;;;2.72;2.30;;;22.80;57.50;;;;;;5054859;28;20521;-64
2022/07/31 00:05:58;;;;;;;5.60;2.33;;;22.80;57.60;;;;;;5054683;28;20222;-65
2022/07/31 00:08:23;;;;;;;3.17;2.10;;;22.80;57.60;;;;;;5054037;28;20171;-65
2022/07/31 00:10:49;;;;;;;2.53;1.90;;;22.80;57.60;;;;;;5054513;28;20171;-64
2022/07/31 00:13:14;;;;;;;3.03;2.10;;;22.80;57.60;;;;;;5054561;28;20175;-64
2022/07/31 00:15:40;;;;;;;2.92;2.35;;;22.80;57.60;;;;;;5053775;28;20677;-65
2022/07/31 00:18:07;;;;;;;2.80;2.05;;;22.80;57.60;;;;;;5054342;28;20163;-65
2022/07/31 00:20:33;;;;;;;2.88;2.67;;;22.80;57.60;;;;;;5054232;28;20183;-64
2022/07/31 00:22:58;;;;;;;2.75;2.08;;;22.80;57.70;;;;;;5053606;28;20197;-64
2022/07/31 00:25:24;;;;;;;5.05;2.13;;;22.80;57.60;;;;;;5054235;28;20179;-64
2022/07/31 00:27:50;;;;;;;3.08;2.20;;;22.80;57.70;;;;;;5054471;28;20270;-64
2022/07/31 00:30:16;;;;;;;2.40;2.20;;;22.80;57.60;;;;;;5053703;28;20626;-63
2022/07/31 00:32:42;;;;;;;2.40;2.20;;;22.80;57.60;;;;;;5054230;28;20230;-64
2022/07/31 00:35:08;;;;;;;2.03;1.92;;;22.80;57.60;;;;;;5054371;28;20207;-64
2022/07/31 00:37:37;;;;;;;2.83;2.33;;;22.80;57.70;;;;;;5053390;28;20210;-64
2022/07/31 00:40:05;;;;;;;2.22;2.05;;;22.80;57.70;;;;;;5053956;28;20211;-64
2022/07/31 00:42:31;;;;;;;1.90;1.80;;;22.80;57.70;;;;;;5054220;28;20263;-64
2022/07/31 00:44:56;;;;;;;2.25;2.03;;;22.80;57.60;;;;;;5053409;28;20266;-64
2022/07/31 00:47:22;;;;;;;4.50;2.25;;;22.80;57.70;;;;;;5053912;28;20535;-64
2022/07/31 00:49:47;;;;;;;1.90;1.80;;;22.70;57.60;;;;;;5053681;28;20626;-63
2022/07/31 00:52:13;;;;;;;2.10;1.90;;;22.70;57.60;;;;;;5053201;28;20171;-64
2022/07/31 00:54:39;;;;;;;4.18;3.15;;;22.70;57.60;;;;;;5053746;28;20198;-64
2022/07/31 00:57:04;;;;;;;2.58;2.17;;;22.70;57.60;;;;;;5053796;28;20543;-64
2022/07/31 00:59:30;;;;;;;2.70;2.00;;;22.70;57.60;;;;;;5053107;28;20171;-64
2022/07/31 01:01:56;;;;;;;2.65;2.25;;;22.70;57.60;;;;;;5053625;28;20175;-64
2022/07/31 01:04:21;;;;;;;2.25;2.05;;;22.80;57.70;;;;;;5053046;28;20583;-64
2022/07/31 01:06:47;;;;;;;2.40;2.20;;;22.70;57.70;;;;;;5053530;28;20623;-64
2022/07/31 01:09:13;;;;;;;2.95;2.10;;;22.70;57.80;;;;;;5053454;28;20175;-65
2022/07/31 01:11:47;;;;;;;3.20;2.08;;;22.70;57.80;;;;;;5053059;28;20201;-64
2022/07/31 01:14:13;;;;;;;2.80;2.20;;;22.70;57.70;;;;;;5053436;28;20244;-64
2022/07/31 01:16:42;;;;;;;2.80;2.08;;;22.70;57.60;;;;;;5053761;28;20175;-64
2022/07/31 01:19:39;;;;;;;2.38;2.17;;;22.70;57.70;;;;;;5052600;28;20175;-65
2022/07/31 01:22:33;;;;;;;2.58;1.70;;;22.70;57.70;;;;;;5035101;28;20183;-65
2022/07/31 01:25:07;;;;;;;2.42;2.22;;;22.70;57.70;;;;;;5053099;28;20671;-64
2022/07/31 01:27:36;;;;;;;2.05;1.85;;;22.70;57.80;;;;;;5052496;28;20265;-64
2022/07/31 01:30:02;;;;;;;2.85;2.08;;;22.70;57.80;;;;;;5053057;28;20627;-65
2022/07/31 01:32:32;;;;;;;2.60;2.08;;;22.70;57.80;;;;;;5033927;28;20309;-65
2022/07/31 01:35:02;;;;;;;2.53;1.90;;;22.70;57.70;;;;;;5035266;28;20206;-64
2022/07/31 01:37:30;;;;;;;3.05;2.38;;;22.70;57.70;;;;;;5035458;28;20187;-65
2022/07/31 01:40:04;;;;;;;2.75;1.90;;;22.70;57.70;;;;;;5034382;28;20174;-64
2022/07/31 01:42:29;;;;;;;2.08;1.80;;;22.70;57.70;;;;;;5035164;28;20175;-65
2022/07/31 01:44:59;;;;;;;2.13;2.00;;;22.70;57.80;;;;;;5035233;28;20171;-65
2022/07/31 01:47:24;;;;;;;2.25;2.10;;;22.70;57.70;;;;;;5034968;28;20250;-64
2022/07/31 01:49:50;;;;;;;2.13;1.98;;;22.70;57.80;;;;;;5035058;28;20258;-65
2022/07/31 01:52:16;;;;;;;2.05;1.85;;;22.70;57.70;;;;;;5035180;28;20254;-64
2022/07/31 01:54:42;;;;;;;2.45;2.10;;;22.70;57.80;;;;;;5034296;28;20217;-64
2022/07/31 01:57:07;;;;;;;2.03;1.90;;;22.60;57.80;;;;;;5034981;28;20289;-64
2022/07/31 01:59:33;;;;;;;2.53;2.05;;;22.70;57.70;;;;;;5052913;28;20649;-64
2022/07/31 02:01:59;;;;;;;2.65;2.20;;;22.70;57.70;;;;;;5052096;28;20573;-65
2022/07/31 02:04:25;;;;;;;2.25;2.05;;;22.60;57.70;;;;;;5052811;28;20629;-65
2022/07/31 02:06:50;;;;;;;2.10;1.85;;;22.70;57.80;;;;;;5034769;28;20621;-66
2022/07/31 02:09:19;;;;;;;2.67;1.70;;;22.60;57.80;;;;;;5034242;28;20178;-65
2022/07/31 02:11:44;;;;;;;2.35;2.15;;;22.60;57.70;;;;;;5034775;28;20206;-65
2022/07/31 02:14:10;;;;;;;2.95;2.30;;;22.60;57.80;;;;;;5052910;28;20186;-65
2022/07/31 02:16:36;;;;;;;1.98;1.88;;;22.70;57.80;;;;;;5034204;28;20175;-64
2022/07/31 02:19:02;;;;;;;2.10;1.90;;;22.60;57.80;;;;;;5034897;28;20546;-65
2022/07/31 02:21:28;;;;;;;1.95;1.85;;;22.60;57.80;;;;;;5034689;28;20644;-65
2022/07/31 02:23:53;;;;;;;1.70;1.60;;;22.60;57.70;;;;;;5051757;28;20186;-64
2022/07/31 02:26:19;;;;;;;2.45;2.00;;;22.60;57.80;;;;;;5052403;28;20182;-64
2022/07/31 02:28:45;;;;;;;2.15;1.95;;;22.60;57.70;;;;;;5034002;28;20171;-64
2022/07/31 02:31:11;;;;;;;2.72;2.17;;;22.60;57.80;;;;;;5034684;28;20253;-64
2022/07/31 02:33:37;;;;;;;1.90;1.80;;;22.60;57.80;;;;;;5052526;28;20176;-64
2022/07/31 02:36:03;;;;;;;1.83;1.70;;;22.70;57.80;;;;;;5051551;28;20294;-64
2022/07/31 02:38:29;;;;;;;2.47;2.00;;;22.60;57.80;;;;;;5034640;28;20540;-64
2022/07/31 02:40:57;;;;;;;2.78;1.80;;;22.60;57.70;;;;;;5034281;28;20691;-64
2022/07/31 02:43:24;;;;;;;1.70;1.60;;;22.60;57.60;;;;;;5034621;28;20179;-64
2022/07/31 02:45:49;;;;;;;2.05;1.83;;;22.60;57.70;;;;;;5038669;28;20198;-64
2022/07/31 02:48:15;;;;;;;2.10;2.00;;;22.60;57.70;;;;;;5056359;28;20171;-63
2022/07/31 02:50:40;;;;;;;2.20;2.00;;;22.60;57.80;;;;;;5037865;28;20571;-63
2022/07/31 02:53:06;;;;;;;2.67;1.90;;;22.60;57.80;;;;;;5038251;28;20171;-63
2022/07/31 02:55:32;;;;;;;2.88;2.17;;;22.60;57.80;;;;;;5055944;28;20213;-64
2022/07/31 02:57:58;;;;;;;2.22;2.00;;;22.60;57.80;;;;;;5037482;28;20186;-64
2022/07/31 03:00:25;;;;;;;2.03;1.90;;;22.60;57.70;;;;;;5056120;28;20179;-63
2022/07/31 03:02:52;;;;;;;2.63;2.10;;;22.60;57.80;;;;;;5056111;28;20197;-65
2022/07/31 03:05:18;;;;;;;2.03;1.83;;;22.50;57.70;;;;;;5055278;28;20179;-64
2022/07/31 03:07:44;;;;;;;2.50;2.05;;;22.60;57.80;;;;;;5055738;28;20194;-65
2022/07/31 03:10:09;;;;;;;2.35;2.15;;;22.60;57.80;;;;;;5055880;28;20179;-64
2022/07/31 03:12:39;;;;;;;2.22;2.03;;;22.60;57.80;;;;;;5055284;28;20179;-64
2022/07/31 03:15:10;;;;;;;2.35;1.80;;;22.60;57.80;;;;;;5055740;28;20218;-64
2022/07/31 03:17:39;;;;;;;1.73;1.63;;;22.60;57.70;;;;;;5038161;28;20172;-65
2022/07/31 03:20:05;;;;;;;1.80;1.70;;;22.60;57.80;;;;;;5037315;28;20183;-64
2022/07/31 03:22:31;;;;;;;2.15;2.00;;;22.60;57.80;;;;;;5037870;28;20253;-65
2022/07/31 03:24:57;;;;;;;2.08;1.98;;;22.60;57.80;;;;;;5036879;28;20259;-63
2022/07/31 03:27:22;;;;;;;2.40;2.22;;;22.60;57.80;;;;;;5037927;28;20172;-64
2022/07/31 03:29:48;;;;;;;2.38;2.17;;;22.60;57.80;;;;;;5037652;28;20755;-64
2022/07/31 03:32:13;;;;;;;2.10;1.90;;;22.60;58.40;;;;;;5054512;28;21084;-64
2022/07/31 03:34:39;;;;;;;2.40;1.98;;;22.60;57.80;;;;;;5055530;28;20727;-64
2022/07/31 03:37:05;;;;;;;2.10;1.90;;;22.50;57.70;;;;;;5055241;28;20519;-64
2022/07/31 03:39:30;;;;;;;2.08;1.98;;;22.60;57.80;;;;;;5054680;28;20625;-65
2022/07/31 03:41:56;;;;;;;3.03;1.90;;;22.60;57.80;;;;;;5055023;28;20644;-65
2022/07/31 03:44:21;;;;;;;2.05;1.88;;;22.60;57.80;;;;;;5037428;28;20190;-64
2022/07/31 03:46:47;;;;;;;2.15;1.95;;;22.50;57.80;;;;;;5054358;28;20614;-64
2022/07/31 03:49:12;;;;;;;2.40;2.20;;;22.60;57.80;;;;;;5037637;28;20186;-63
2022/07/31 03:51:38;;;;;;;1.88;1.70;;;22.60;57.80;;;;;;5037316;28;20182;-64
2022/07/31 03:54:03;;;;;;;2.20;2.00;;;22.50;57.90;;;;;;5054308;28;20179;-63
2022/07/31 03:56:29;;;;;;;1.88;1.77;;;22.50;57.90;;;;;;5036694;28;20229;-63
2022/07/31 03:58:54;;;;;;;3.15;2.10;;;22.50;57.90;;;;;;5037125;28;20172;-65
2022/07/31 04:01:20;;;;;;;1.77;1.67;;;22.50;57.80;;;;;;5036519;28;20174;-64
2022/07/31 04:03:46;;;;;;;1.60;1.50;;;22.50;57.80;;;;;;5054695;28;20171;-64
2022/07/31 04:06:11;;;;;;;2.20;2.05;;;22.50;57.70;;;;;;5054816;28;20183;-65
2022/07/31 04:08:37;;;;;;;2.20;2.00;;;22.60;57.90;;;;;;5054219;28;20221;-66
2022/07/31 04:11:02;;;;;;;2.30;2.10;;;22.50;57.90;;;;;;5054545;28;20595;-65
2022/07/31 04:13:28;;;;;;;1.75;1.65;;;22.50;57.80;;;;;;5054530;28;20708;-64
2022/07/31 04:15:53;;;;;;;2.00;1.90;;;22.50;57.90;;;;;;5053437;28;20206;-65
2022/07/31 04:18:19;;;;;;;1.83;1.73;;;22.50;57.90;;;;;;5054403;28;20179;-68
2022/07/31 04:20:44;;;;;;;1.95;1.80;;;22.50;57.90;;;;;;5054379;28;20186;-65
2022/07/31 04:23:10;;;;;;;2.08;1.88;;;22.50;57.90;;;;;;5053714;28;20175;-67
2022/07/31 04:25:35;;;;;;;2.00;1.90;;;22.50;57.80;;;;;;5054672;28;20570;-63
2022/07/31 04:28:01;;;;;;;4.90;2.22;;;22.50;57.90;;;;;;5054069;28;20679;-64
2022/07/31 04:30:26;;;;;;;2.22;2.00;;;22.50;57.90;;;;;;5053605;28;20273;-63
2022/07/31 04:32:52;;;;;;;1.80;1.70;;;22.50;57.90;;;;;;5053893;28;20328;-65
2022/07/31 04:35:17;;;;;;;2.33;2.10;;;22.50;57.90;;;;;;5053223;28;20298;-64
2022/07/31 04:37:43;;;;;;;2.15;1.92;;;22.50;57.90;;;;;;5054214;28;20545;-64
2022/07/31 04:40:09;;;;;;;2.13;2.03;;;22.50;57.90;;;;;;5054410;28;20182;-64
2022/07/31 04:42:35;;;;;;;2.95;2.03;;;22.50;57.90;;;;;;5053437;28;21018;-64
2022/07/31 04:45:00;;;;;;;2.22;2.08;;;22.50;57.80;;;;;;5053994;28;20704;-64
2022/07/31 04:47:26;;;;;;;2.47;2.00;;;22.60;58.00;;;;;;5053855;28;20744;-64
2022/07/31 04:49:51;;;;;;;2.75;2.47;;;22.50;57.90;;;;;;5053029;28;20185;-64
2022/07/31 04:52:17;;;;;;;2.38;2.17;;;22.50;57.90;;;;;;5053773;28;20301;-64
2022/07/31 04:54:42;;;;;;;2.42;2.00;;;22.50;57.90;;;;;;5053659;28;20213;-63
2022/07/31 04:57:08;;;;;;;2.10;1.90;;;22.50;58.00;;;;;;5052919;28;20561;-64
2022/07/31 04:59:33;;;;;;;1.80;1.70;;;22.50;57.90;;;;;;5053735;28;20171;-63
2022/07/31 05:01:59;;;;;;;2.00;1.73;;;22.50;57.90;;;;;;5053600;28;20176;-64
2022/07/31 05:04:25;;;;;;;1.63;1.52;;;22.50;57.90;;;;;;5052980;28;20175;-64
2022/07/31 05:06:51;;;;;;;2.10;1.98;;;22.50;57.90;;;;;;5052824;28;20591;-64
2022/07/31 05:09:18;;;;;;;2.42;1.90;;;22.50;57.80;;;;;;5053411;28;20179;-64
2022/07/31 05:11:44;;;;;;;2.20;1.85;;;22.50;57.80;;;;;;5052853;28;20183;-63
2022/07/31 05:14:10;;;;;;;2.95;2.17;;;22.50;57.80;;;;;;5053581;28;20171;-64
2022/07/31 05:16:36;;;;;;;2.00;1.90;;;22.50;57.80;;;;;;5053531;28;20179;-64
2022/07/31 05:19:01;;;;;;;2.22;2.03;;;22.60;57.80;;;;;;5052546;28;20175;-64
2022/07/31 05:21:29;;;;;;;2.40;2.15;;;22.60;57.80;;;;;;5053206;28;20198;-64
2022/07/31 05:23:55;;;;;;;2.13;2.03;;;22.60;57.80;;;;;;5053611;28;20172;-64
2022/07/31 05:26:20;;;;;;;2.10;2.00;;;22.60;57.90;;;;;;5052427;28;20173;-64
2022/07/31 05:28:48;;;;;;;2.25;2.00;;;22.60;57.80;;;;;;5053162;28;20187;-64
2022/07/31 05:31:13;;;;;;;1.95;1.85;;;22.60;57.90;;;;;;5053027;28;20276;-63
2022/07/31 05:33:39;;;;;;;1.75;1.65;;;22.60;57.90;;;;;;5052419;28;20614;-64
2022/07/31 05:36:05;;;;;;;2.05;1.95;;;22.60;57.80;;;;;;5053002;28;20210;-64
2022/07/31 05:38:30;;;;;;;2.55;2.00;;;22.60;57.80;;;;;;5052734;28;20186;-64
2022/07/31 05:40:56;;;;;;;2.08;1.98;;;22.60;57.90;;;;;;5052370;28;20171;-64
2022/07/31 05:43:21;;;;;;;2.15;1.98;;;22.60;57.80;;;;;;5053034;28;20171;-65
2022/07/31 05:45:47;;;;;;;2.55;2.00;;;22.60;57.90;;;;;;5052083;28;20171;-64
2022/07/31 05:48:13;;;;;;;2.25;1.80;;;22.60;57.80;;;;;;5052807;28;20175;-64
2022/07/31 05:50:46;;;;;;;2.17;2.08;;;22.60;57.80;;;;;;5053067;28;20257;-64
2022/07/31 05:53:13;;;;;;;2.60;1.90;;;22.60;57.90;;;;;;5052349;28;20179;-64
2022/07/31 05:55:42;;;;;;;2.13;1.92;;;22.60;58.40;;;;;;5052935;28;20213;-64
2022/07/31 05:58:08;;;;;;;1.90;1.80;;;22.60;57.80;;;;;;5052883;28;20269;-64
2022/07/31 06:00:33;;;;;;;2.40;1.90;;;22.60;57.90;;;;;;5052114;28;20266;-63
2022/07/31 06:02:59;;;;;;;2.08;1.98;;;22.60;57.80;;;;;;5052528;28;20202;-65
2022/07/31 06:05:28;;;;;;;2.08;1.98;;;22.60;57.80;;;;;;5052777;28;20182;-64
2022/07/31 06:07:54;;;;;;;1.80;1.67;;;22.60;57.80;;;;;;5051954;28;20210;-65
2022/07/31 06:10:20;;;;;;;2.10;1.90;;;22.60;57.90;;;;;;5052789;28;20589;-64
2022/07/31 06:12:45;;;;;;;2.65;2.00;;;22.60;57.90;;;;;;5052678;28;20178;-65
2022/07/31 06:15:11;;;;;;;2.22;2.10;;;22.60;58.00;;;;;;5051931;28;20214;-65
2022/07/31 06:17:40;;;;;;;2.10;1.90;;;22.60;58.60;;;;;;5052425;28;20174;-65
2022/07/31 06:20:06;;;;;;;2.28;2.08;;;22.60;58.10;;;;;;5058505;28;20232;-65
2022/07/31 06:22:32;;;;;;;1.98;1.80;;;22.60;58.10;;;;;;5058566;28;20809;-65
2022/07/31 06:24:57;;;;;;;1.83;1.73;;;22.60;58.10;;;;;;5059069;28;20692;-64
2022/07/31 06:27:23;;;;;;;1.90;1.80;;;22.60;58.10;;;;;;5059334;28;20171;-65
2022/07/31 06:29:48;;;;;;;2.30;2.10;;;22.60;58.00;;;;;;5058230;28;20179;-64
2022/07/31 06:32:14;;;;;;;2.30;2.10;;;22.60;58.10;;;;;;5058806;28;20313;-64
2022/07/31 06:34:40;;;;;;;2.10;1.90;;;22.60;58.10;;;;;;5059276;28;20207;-65
2022/07/31 06:37:06;;;;;;;2.35;2.15;;;22.60;58.00;;;;;;5058340;28;20228;-66
2022/07/31 06:39:31;;;;;;;2.10;1.92;;;22.60;58.10;;;;;;5059365;28;20178;-64
2022/07/31 06:41:57;;;;;;;2.63;2.28;;;22.60;58.00;;;;;;5058276;28;20174;-64
2022/07/31 06:44:22;;;;;;;2.15;1.95;;;22.60;58.00;;;;;;5059004;28;20167;-64
2022/07/31 06:46:48;;;;;;;2.08;1.90;;;22.60;58.00;;;;;;5059383;28;20170;-64
2022/07/31 06:49:14;;;;;;;1.92;1.83;;;22.60;58.00;;;;;;5058352;28;20512;-64
2022/07/31 06:51:39;;;;;;;2.03;1.83;;;22.60;58.00;;;;;;5059255;28;20182;-64
2022/07/31 06:54:07;;;;;;;2.10;2.00;;;22.60;58.00;;;;;;5058926;28;20183;-64
2022/07/31 06:56:32;;;;;;;2.30;2.10;;;22.70;58.00;;;;;;5058033;28;20205;-64
2022/07/31 06:58:58;;;;;;;2.45;1.90;;;22.70;58.00;;;;;;5058927;28;20171;-64
2022/07/31 07:01:23;;;;;;;2.20;2.00;;;22.70;58.00;;;;;;5058917;28;20186;-64
2022/07/31 07:03:49;;;;;;;2.33;2.13;;;22.60;57.90;;;;;;5058046;28;20174;-65
2022/07/31 07:06:14;;;;;;;2.30;2.10;;;22.70;58.00;;;;;;5058723;28;20175;-64
2022/07/31 07:08:40;;;;;;;2.30;2.10;;;22.70;57.90;;;;;;5059065;28;20202;-65
2022/07/31 07:11:05;;;;;;;2.03;1.92;;;22.70;58.00;;;;;;5057886;28;20648;-64
2022/07/31 07:13:31;;;;;;;2.15;2.00;;;22.60;57.90;;;;;;5058616;28;20548;-64
2022/07/31 07:15:56;;;;;;;2.58;2.38;;;22.70;58.00;;;;;;5058407;28;20567;-65
2022/07/31 07:18:22;;;;;;;2.65;1.90;;;22.70;58.00;;;;;;5058080;28;20585;-65
2022/07/31 07:20:48;;;;;;;2.50;2.30;;;22.60;58.00;;;;;;5058505;28;20177;-64
2022/07/31 07:23:14;;;;;;;2.33;2.20;;;22.70;58.00;;;;;;5058673;28;20265;-65
2022/07/31 07:25:39;;;;;;;2.70;2.50;;;22.60;58.00;;;;;;5058087;28;20262;-64
2022/07/31 07:28:06;;;;;;;2.35;2.15;;;22.70;58.00;;;;;;5058238;28;20271;-64
2022/07/31 07:30:31;;;;;;;2.30;2.20;;;22.70;58.00;;;;;;5055680;28;20183;-64
2022/07/31 07:32:58;;;;;;;1.98;1.85;;;22.70;58.00;;;;;;5054035;28;20233;-65
2022/07/31 07:35:23;;;;;;;2.10;2.00;;;22.70;58.00;;;;;;5055339;28;20222;-65
2022/07/31 07:37:49;;;;;;;2.05;1.90;;;22.70;58.00;;;;;;5055332;28;20691;-65
2022/07/31 07:40:15;;;;;;;2.05;1.85;;;22.70;58.00;;;;;;5054515;28;20199;-65
2022/07/31 07:42:41;;;;;;;2.08;1.90;;;22.70;57.90;;;;;;5055358;28;20203;-65
2022/07/31 07:45:07;;;;;;;2.05;1.80;;;22.70;57.90;;;;;;5054803;28;20669;-65
2022/07/31 07:47:32;;;;;;;2.33;2.13;;;22.70;57.90;;;;;;5054946;28;20519;-64
2022/07/31 07:49:58;;;;;;;1.90;1.80;;;22.70;57.90;;;;;;5055088;28;20237;-63
2022/07/31 07:52:23;;;;;;;2.00;1.90;;;22.70;58.00;;;;;;5054383;28;20203;-64
2022/07/31 07:54:49;;;;;;;1.63;1.52;;;22.80;58.00;;;;;;5055012;28;20214;-64
2022/07/31 07:57:16;;;;;;;2.28;2.05;;;22.70;58.00;;;;;;5055199;28;20179;-65
2022/07/31 07:59:42;;;;;;;2.45;2.05;;;22.80;58.00;;;;;;5054258;28;20179;-64
2022/07/31 08:02:07;;;;;;;1.83;1.73;;;22.80;58.00;;;;;;5054967;28;20308;-64
2022/07/31 08:04:33;;;;;;;2.08;1.88;;;22.70;58.00;;;;;;5054905;28;20213;-65
2022/07/31 08:06:58;;;;;;;1.80;1.70;;;22.70;58.00;;;;;;5054042;28;20205;-65
2022/07/31 08:09:24;;;;;;;2.53;2.28;;;22.70;58.00;;;;;;5054727;28;20194;-65
2022/07/31 08:11:50;;;;;;;2.67;2.40;;;22.70;58.10;;;;;;5054474;28;20258;-64
2022/07/31 08:14:15;;;;;;;1.98;1.88;;;22.70;58.00;;;;;;5053904;28;20181;-72
2022/07/31 08:16:41;;;;;;;1.90;1.80;;;22.70;58.10;;;;;;5054926;28;20175;-74
2022/07/31 08:19:06;;;;;;;2.13;2.03;;;22.80;58.10;;;;;;5054624;28;20171;-73
2022/07/31 08:21:33;;;;;;;3.15;2.80;;;22.70;58.10;;;;;;5053918;28;20214;-72
2022/07/31 08:23:59;;;;;;;5.38;2.88;;;22.80;58.70;;;;;;5054403;28;20176;-74
2022/07/31 08:26:24;;;;;;;3.22;2.35;;;22.70;58.20;;;;;;5054439;28;20274;-72
2022/07/31 08:28:50;;;;;;;6.63;2.80;;;22.80;58.20;;;;;;5053562;28;20290;-73
2022/07/31 08:31:15;;;;;;;4.68;3.33;;;22.80;58.20;;;;;;5054048;28;20625;-72
2022/07/31 08:33:41;;;;;;;5.38;2.95;;;22.80;58.30;;;;;;5054323;28;20163;-72
2022/07/31 08:36:09;;;;;;;5.18;4.60;;;22.80;58.30;;;;;;5053459;28;20348;-73
2022/07/31 08:38:35;;;;;;;7.25;5.75;;;22.80;59.00;;;;;;5054277;28;20710;-75
2022/07/31 08:41:01;;;;;;;6.70;5.40;;;22.80;59.50;;;;;;5054113;28;20237;-75
2022/07/31 08:43:28;;;;;;;8.73;5.85;;;22.80;59.50;;;;;;5053134;28;20629;-73
2022/07/31 08:45:54;;;;;;;7.05;5.13;;;22.90;60.60;;;;;;5054049;28;20230;-74
2022/07/31 08:48:20;;;;;;;9.60;5.50;;;23.00;60.80;;;;;;5036525;28;20331;-73
2022/07/31 08:50:46;;;;;;;5.68;4.80;;;23.00;60.90;;;;;;5053320;28;20175;-73
2022/07/31 08:53:13;;;;;;;6.97;4.40;;;23.00;61.00;;;;;;5036290;28;20179;-70
2022/07/31 08:55:39;;;;;;;8.93;5.00;;;23.00;61.40;;;;;;5035449;28;20206;-72
2022/07/31 08:58:05;;;;;;;6.05;4.88;;;23.10;61.60;;;;;;5053594;28;20183;-72
2022/07/31 09:00:32;;;;;;;12.20;5.82;;;23.10;62.20;;;;;;5053932;28;20197;-73
2022/07/31 09:02:57;;;;;;;7.53;5.03;;;23.10;61.80;;;;;;5052915;28;20171;-72
2022/07/31 09:05:23;;;;;;;10.90;5.07;;;23.20;61.90;;;;;;5053670;28;20733;-73
2022/07/31 09:07:49;;;;;;;6.13;4.68;;;23.20;61.90;;;;;;5053478;28;20249;-71
2022/07/31 09:10:25;;;;;;;10.05;4.88;;;23.20;62.00;;;;;;5052715;28;20265;-69
2022/07/31 09:12:54;;;;;;;9.35;5.00;;;23.20;62.00;;;;;;5053519;28;20179;-71
2022/07/31 09:15:27;;;;;;;8.00;4.97;;;23.20;62.20;;;;;;5053483;28;20337;-74
2022/07/31 09:17:53;;;;;;;5.25;4.57;;;23.20;62.10;;;;;;5052742;28;20193;-75
2022/07/31 09:20:20;;;;;;;9.57;5.65;;;23.20;62.20;;;;;;5053327;28;20636;-73
2022/07/31 09:22:46;;;;;;;6.55;5.10;;;23.20;61.90;;;;;;5053236;28;20179;-75
2022/07/31 09:25:18;;;;;;;8.23;4.90;;;23.20;61.80;;;;;;5052613;28;20190;-74
2022/07/31 09:27:44;;;;;;;7.90;4.88;;;23.20;61.80;;;;;;5053030;28;20206;-74
2022/07/31 09:30:10;;;;;;;6.93;4.65;;;23.10;61.50;;;;;;5053381;28;20187;-74
2022/07/31 09:32:36;;;;;;;8.57;5.38;;;23.10;61.40;;;;;;5052149;28;20759;-67
2022/07/31 09:35:09;;;;;;;13.00;5.90;;;23.10;61.40;;;;;;5052837;28;20709;-69
2022/07/31 09:37:35;;;;;;;9.95;6.13;;;23.10;61.50;;;;;;5052960;28;20186;-69
2022/07/31 09:40:01;;;;;;;7.55;4.88;;;23.10;61.50;;;;;;5052350;28;20171;-71
2022/07/31 09:42:37;;;;;;;10.77;4.97;;;23.10;61.40;;;;;;5053130;28;20179;-66
2022/07/31 09:45:03;;;;;;;7.15;5.18;;;23.20;61.40;;;;;;5052352;28;20880;-75
2022/07/31 09:47:30;;;;;;;6.13;5.05;;;23.20;61.20;;;;;;5052905;28;20546;-72
2022/07/31 09:49:57;;;;;;;10.40;5.05;;;23.20;61.50;;;;;;5052639;28;20175;-74
2022/07/31 09:52:24;;;;;;;8.65;5.35;;;23.20;61.40;;;;;;5052106;28;20700;-73
2022/07/31 09:54:59;;;;;;;10.10;5.80;;;23.20;61.40;;;;;;5051977;28;20575;-72
2022/07/31 09:57:25;;;;;;;7.20;5.65;;;23.20;61.90;;;;;;5052766;28;20332;-72
2022/07/31 09:59:50;;;;;;;10.40;5.15;;;23.20;62.30;;;;;;5051980;28;20664;-75
2022/07/31 10:02:16;;;;;;;11.15;5.82;;;23.20;62.60;;;;;;5035018;28;20233;-72
2022/07/31 10:04:42;;;;;;;17.45;5.75;;;23.30;63.20;;;;;;5034968;28;20228;-68
2022/07/31 10:07:07;;;;;;;9.82;5.28;;;23.30;63.00;;;;;;5034577;28;20167;-70
2022/07/31 10:09:33;;;;;;;14.00;5.68;;;23.30;63.40;;;;;;5052016;28;20601;-68
2022/07/31 10:11:58;;;;;;;10.73;4.95;;;23.30;63.70;;;;;;5034692;28;20699;-66
2022/07/31 10:14:27;;;;;;;8.48;5.22;;;23.30;64.20;;;;;;5034010;28;20175;-67
2022/07/31 10:16:54;;;;;;;12.13;5.43;;;23.40;63.10;;;;;;5034985;28;20175;-69
2022/07/31 10:19:20;;;;;;;9.93;4.78;;;23.40;64.00;;;;;;5052437;28;20190;-67
2022/07/31 10:21:51;;;;;;;8.65;4.97;;;23.40;63.10;;;;;;5051844;28;20167;-69
2022/07/31 10:24:18;;;;;;;13.65;5.63;;;23.40;63.00;;;;;;5035444;28;20240;-69
2022/07/31 10:26:44;;;;;;;8.57;5.13;;;23.40;62.90;;;;;;5034716;28;20179;-66
2022/07/31 10:29:09;;;;;;;7.45;4.90;;;23.40;62.80;;;;;;5034310;28;20171;-66
2022/07/31 10:31:35;;;;;;;7.35;5.10;;;23.40;62.80;;;;;;5034733;28;20253;-65
2022/07/31 10:34:01;;;;;;;9.68;5.25;;;23.40;63.10;;;;;;5034112;28;20204;-67
2022/07/31 10:36:28;;;;;;;9.60;5.10;;;23.40;62.80;;;;;;5034809;28;20297;-66
2022/07/31 10:39:02;;;;;;;8.52;5.35;;;23.40;62.70;;;;;;5034583;28;20171;-72
2022/07/31 10:41:55;;;;;;;8.70;5.47;;;23.40;62.90;;;;;;5051742;28;20224;-72
2022/07/31 10:44:26;;;;;;;6.43;4.63;;;23.50;62.70;;;;;;5035320;28;20232;-71
2022/07/31 10:46:51;;;;;;;5.75;4.40;;;23.50;62.60;;;;;;5052248;28;20171;-72
2022/07/31 10:49:17;;;;;;;9.52;4.65;;;23.40;62.50;;;;;;5051786;28;20258;-77
2022/07/31 10:51:47;;;;;;;8.52;5.07;;;23.50;62.50;;;;;;5052226;28;20194;-74
2022/07/31 10:54:13;;;;;;;5.55;4.53;;;23.50;62.60;;;;;;5052426;28;20228;-73
2022/07/31 10:56:42;;;;;;;7.88;4.63;;;23.50;62.70;;;;;;5051373;28;20272;-72
2022/07/31 10:59:07;;;;;;;5.00;4.32;;;23.50;62.70;;;;;;5052360;28;20229;-73
2022/07/31 11:01:33;;;;;;;10.15;5.45;;;23.50;62.80;;;;;;5052305;28;20179;-71
2022/07/31 11:04:00;;;;;;;7.40;4.93;;;23.50;62.60;;;;;;5033542;28;20175;-73
2022/07/31 11:06:25;;;;;;;4.97;3.83;;;23.60;63.40;;;;;;5054469;28;20186;-77
2022/07/31 11:08:52;;;;;;;6.00;4.50;;;23.50;62.60;;;;;;5055891;28;20175;-77
2022/07/31 11:11:29;;;;;;;6.13;4.97;;;23.50;62.50;;;;;;5055104;28;20229;-78
2022/07/31 11:13:55;;;;;;;7.25;4.85;;;23.50;62.50;;;;;;5056406;28;20179;-71
2022/07/31 11:16:21;;;;;;;5.88;5.28;;;23.50;62.40;;;;;;5055043;28;20211;-69
2022/07/31 11:18:56;;;;;;;9.82;6.18;;;23.50;62.70;;;;;;5055534;28;20225;-71
2022/07/31 11:21:32;;;;;;;7.50;5.72;;;23.50;63.10;;;;;;5055805;28;20209;-70
2022/07/31 11:23:58;;;;;;;10.27;6.15;;;23.40;63.20;;;;;;5054731;28;20225;-71
2022/07/31 11:26:24;;;;;;;8.27;5.55;;;23.40;63.20;;;;;;5055539;28;20179;-70
2022/07/31 11:28:49;;;;;;;6.20;4.97;;;23.50;63.30;;;;;;5055477;28;20715;-70
2022/07/31 11:31:15;;;;;;;8.18;5.45;;;23.40;63.20;;;;;;5054744;28;20219;-69
2022/07/31 11:33:45;;;;;;;6.30;5.68;;;23.40;63.30;;;;;;5055582;28;20186;-69
2022/07/31 11:36:12;;;;;;;6.47;5.60;;;23.40;63.20;;;;;;5055294;28;20244;-69
2022/07/31 11:38:38;;;;;;;7.93;6.50;;;23.40;63.20;;;;;;5054641;28;20646;-69
2022/07/31 11:41:04;;;;;;;10.52;6.32;;;23.50;63.20;;;;;;5055328;28;20210;-69
2022/07/31 11:43:30;;;;;;;8.70;5.95;;;23.40;63.20;;;;;;5055213;28;20570;-66
2022/07/31 11:45:56;;;;;;;12.43;7.20;;;23.50;63.40;;;;;;5054472;28;20189;-69
2022/07/31 11:48:22;;;;;;;8.45;6.20;;;23.50;63.60;;;;;;5055064;28;20167;-66
2022/07/31 11:50:48;;;;;;;8.32;6.28;;;23.50;63.50;;;;;;5055156;28;20179;-63
2022/07/31 11:53:14;;;;;;;8.27;5.95;;;23.60;63.70;;;;;;5054520;28;20171;-67
2022/07/31 11:55:56;;;;;;;9.55;6.60;;;23.60;63.70;;;;;;5055298;28;20310;-68
2022/07/31 11:58:23;;;;;;;9.18;6.47;;;23.60;63.80;;;;;;5054285;28;20198;-65
2022/07/31 12:00:52;;;;;;;8.45;7.18;;;23.60;64.00;;;;;;5054677;28;20179;-69
2022/07/31 12:03:38;;;;;;;9.68;6.90;;;23.60;64.10;;;;;;5054895;28;20171;-68
2022/07/31 12:06:05;;;;;;;9.27;6.35;;;23.60;65.00;;;;;;5054133;28;20171;-65
2022/07/31 12:08:30;;;;;;;7.25;6.47;;;23.60;64.20;;;;;;5054706;28;20602;-65
2022/07/31 12:10:58;;;;;;;7.70;6.72;;;23.70;64.00;;;;;;5054448;28;20195;-64
2022/07/31 12:13:24;;;;;;;7.60;6.85;;;23.80;63.70;;;;;;5035923;28;20522;-64
2022/07/31 12:16:06;;;;;;;7.85;6.85;;;23.90;63.60;;;;;;5054013;28;20211;-66
2022/07/31 12:18:46;;;;;;;9.65;6.85;;;23.90;63.70;;;;;;5054807;28;20175;-64
2022/07/31 12:21:11;;;;;;;7.68;6.85;;;23.90;63.70;;;;;;5054143;28;20190;-67
2022/07/31 12:23:42;;;;;;;11.38;6.88;;;23.90;63.90;;;;;;5036859;28;20171;-66
2022/07/31 12:26:09;;;;;;;8.13;6.97;;;23.90;64.10;;;;;;5054403;28;20199;-65
2022/07/31 12:28:35;;;;;;;8.95;6.97;;;23.80;64.30;;;;;;5036405;28;20183;-65
2022/07/31 12:31:00;;;;;;;8.50;7.03;;;23.80;64.40;;;;;;5053915;28;20774;-64
2022/07/31 12:33:26;;;;;;;8.70;7.85;;;23.80;64.60;;;;;;5054260;28;20221;-65
2022/07/31 12:35:52;;;;;;;7.53;6.93;;;23.70;64.50;;;;;;5053490;28;20210;-63
2022/07/31 12:38:24;;;;;;;8.38;7.25;;;23.70;64.60;;;;;;5054230;28;20214;-63
2022/07/31 12:41:01;;;;;;;10.35;6.75;;;23.70;64.60;;;;;;5053236;28;20909;-66
2022/07/31 12:43:26;;;;;;;8.00;7.20;;;23.80;64.70;;;;;;5036580;28;20178;-67